Tag Archives: Seoul

© YTN (click for original)

MD-11F UPS gagal lepas landas di Seoul-Incheon

Pesawat MD-11F beregistrasi N277UP milik UPS yang sedang mengoperasikan penerbangan 5X61 keluar landasan 33L di Seoul Incheon (ICN/RKSI) pada 6 Juni setelah membatalkan take off pada kecepatan tinggi. Pesawat berhenti sekitar 200 meter dari ujung landasan dengan roda depan ambruk dan terlihat mesin mendapatkan kerusakan. Pesawat dikabarkan menabrak antena localizer ILS dan juga beberapa lampu landasan. Semua awak di pesawat (4) berhasil evakuasi melalui pintu kiri depan. Penyebab pembatalan take off belum diketahui.

© YTN (click image for original)
© YTN (click image for original)

NOTAM mengenai penutupan landasan karena kecelakaan tersebut:

Q) RKRR/QMRLC/IV/NBO/A/000/999/3727N12626E005
A) RKSI B) 1606061418 C) 1609061417
E) RWY 15R/33L CLSD DUE TO ACFT ACCIDENT
CREATED: 06 Jun 2016 14:19:00

© YTN (click for original)
© YTN (click for original)

Approach lights untuk Runway 15R kena kerusakan mengakibatkan NOTAM berikut:

A0856/16 NOTAMN
Q) RKRR/QLAAS/IV/NBO/A/000/999/3728N12626E005
A) RKSI B) 1606061814 C) 1606131500
E) RWY 15R ALS U/S DUE TO MAINT
CREATED: 06 Jun 2016 18:15:00
SOURCE: RKRRYNYX A0855/16 NOTAMN

ILS untuk Runway 15R/33L juga rusak mengakibatkan NOTAM berikut:

Q) RKRR/QICAS/I/NBO/A/000/999/3728N12626E005
A) RKSI B) 1606061429 C) 1608051500
E) ILS/DME RWY 15R/33L U/S DUE TO MAINT
CREATED: 06 Jun 2016 14:30:00
SOURCE: RKRRYNYX A0854/16 NOTAMN

Cuaca pada saat kejadian cukup bagus.

METAR RKSI 061400Z 36002KT 9000 SCT040 BKN120 20/14 Q1012 NOSIG=
METAR RKSI 061430Z 28003KT 250V320 9000 SCT040 BKN120 20/14 Q1012 NOSIG=

© YTN (click for original)

UPS MD-11 runway excursion at Seoul Incheon

An MD-11F registered N277UP operating UPS flight 5X61 overshot the runway 33L at Seoul Incheon (ICN/RKSI) airport on 6 June after aborting its take-off run at high speed. Aircraft came to rest beside the 15R approach lights with its nosewheel collapsed and engines damaged. The aircraft is reported to have struck the ILS Localizer antenna as well as several runway lights. All 4 crew members onboard evacuated by using the slide on the front left door. Cause of take-off rejection is unknown.

© YTN (click image for original)
© YTN (click image for original)

NOTAM for the runway closure due to accident.

Q) RKRR/QMRLC/IV/NBO/A/000/999/3727N12626E005
A) RKSI B) 1606061418 C) 1609061417
E) RWY 15R/33L CLSD DUE TO ACFT ACCIDENT
CREATED: 06 Jun 2016 14:19:00

© YTN (click for original)
© YTN (click for original)

Runway 15R Approach lights affected, causing the following NOTAM:

A0856/16 NOTAMN
Q) RKRR/QLAAS/IV/NBO/A/000/999/3728N12626E005
A) RKSI B) 1606061814 C) 1606131500
E) RWY 15R ALS U/S DUE TO MAINT
CREATED: 06 Jun 2016 18:15:00
SOURCE: RKRRYNYX A0855/16 NOTAMN

ILS is affected for 15R/33L causing the following NOTAM:

Q) RKRR/QICAS/I/NBO/A/000/999/3728N12626E005
A) RKSI B) 1606061429 C) 1608051500
E) ILS/DME RWY 15R/33L U/S DUE TO MAINT
CREATED: 06 Jun 2016 14:30:00
SOURCE: RKRRYNYX A0854/16 NOTAMN

The weather for the airport at the time of the accident showed nothing of concern too.

METAR RKSI 061400Z 36002KT 9000 SCT040 BKN120 20/14 Q1012 NOSIG=
METAR RKSI 061430Z 28003KT 250V320 9000 SCT040 BKN120 20/14 Q1012 NOSIG=